sensor_id;sensor_type;location;lat;lon;timestamp;pressure;altitude;pressure_sealevel;temperature;humidity
38939;BME280;24211;49.980;19.776;2022-09-27T00:01:38;98110.94;;;10.30;100.00
38939;BME280;24211;49.980;19.776;2022-09-27T00:04:29;98111.75;;;10.31;100.00
38939;BME280;24211;49.980;19.776;2022-09-27T00:12:03;98107.56;;;10.13;100.00
38939;BME280;24211;49.980;19.776;2022-09-27T00:14:33;98112.81;;;10.08;100.00
38939;BME280;24211;49.980;19.776;2022-09-27T00:17:18;98106.88;;;10.01;100.00
38939;BME280;24211;49.980;19.776;2022-09-27T00:20:25;98106.25;;;9.94;100.00
38939;BME280;24211;49.980;19.776;2022-09-27T00:23:05;98108.06;;;9.88;100.00
38939;BME280;24211;49.980;19.776;2022-09-27T00:26:00;98102.50;;;9.90;100.00
38939;BME280;24211;49.980;19.776;2022-09-27T00:28:48;98096.56;;;9.88;100.00
38939;BME280;24211;49.980;19.776;2022-09-27T00:36:26;98090.63;;;9.81;100.00
38939;BME280;24211;49.980;19.776;2022-09-27T00:39:00;98083.13;;;9.78;100.00
38939;BME280;24211;49.980;19.776;2022-09-27T00:42:11;98080.16;;;9.74;100.00
38939;BME280;24211;49.980;19.776;2022-09-27T00:45:05;98076.13;;;9.72;100.00
38939;BME280;24211;49.980;19.776;2022-09-27T00:50:25;98075.03;;;9.68;100.00
38939;BME280;24211;49.980;19.776;2022-09-27T00:55:56;98063.47;;;9.62;100.00
38939;BME280;24211;49.980;19.776;2022-09-27T00:58:45;98057.75;;;9.54;100.00
38939;BME280;24211;49.980;19.776;2022-09-27T01:01:18;98062.03;;;9.55;100.00
38939;BME280;24211;49.980;19.776;2022-09-27T01:04:04;98060.97;;;9.56;100.00
38939;BME280;24211;49.980;19.776;2022-09-27T01:06:35;98055.84;;;9.49;100.00
38939;BME280;24211;49.980;19.776;2022-09-27T01:09:36;98056.19;;;9.36;100.00
38939;BME280;24211;49.980;19.776;2022-09-27T01:12:27;98055.91;;;9.33;100.00
38939;BME280;24211;49.980;19.776;2022-09-27T01:27:44;98035.53;;;9.27;100.00
38939;BME280;24211;49.980;19.776;2022-09-27T01:30:26;98030.72;;;9.24;100.00
38939;BME280;24211;49.980;19.776;2022-09-27T01:42:14;98020.97;;;9.12;100.00
38939;BME280;24211;49.980;19.776;2022-09-27T01:45:20;98018.78;;;9.09;100.00
38939;BME280;24211;49.980;19.776;2022-09-27T01:48:15;98015.56;;;9.07;100.00
38939;BME280;24211;49.980;19.776;2022-09-27T01:53:56;98001.38;;;9.02;100.00
38939;BME280;24211;49.980;19.776;2022-09-27T01:56:56;97998.81;;;8.90;100.00
38939;BME280;24211;49.980;19.776;2022-09-27T02:00:10;97999.94;;;8.94;100.00
38939;BME280;24211;49.980;19.776;2022-09-27T02:03:05;98000.75;;;8.95;100.00
38939;BME280;24211;49.980;19.776;2022-09-27T02:06:14;97988.72;;;8.92;100.00
38939;BME280;24211;49.980;19.776;2022-09-27T02:09:13;97982.03;;;8.90;100.00
38939;BME280;24211;49.980;19.776;2022-09-27T02:12:20;97998.00;;;8.90;100.00
38939;BME280;24211;49.980;19.776;2022-09-27T02:15:12;98001.97;;;8.87;100.00
38939;BME280;24211;49.980;19.776;2022-09-27T02:18:00;97999.31;;;8.87;100.00
38939;BME280;24211;49.980;19.776;2022-09-27T02:20:47;97992.31;;;8.81;100.00
38939;BME280;24211;49.980;19.776;2022-09-27T02:26:35;97986.72;;;8.83;100.00
38939;BME280;24211;49.980;19.776;2022-09-27T02:29:10;97986.44;;;8.79;100.00
38939;BME280;24211;49.980;19.776;2022-09-27T02:31:51;97992.78;;;8.78;100.00
38939;BME280;24211;49.980;19.776;2022-09-27T02:34:35;97974.63;;;8.75;100.00
38939;BME280;24211;49.980;19.776;2022-09-27T02:37:09;97977.84;;;8.77;100.00
38939;BME280;24211;49.980;19.776;2022-09-27T02:39:42;97977.84;;;8.77;100.00
38939;BME280;24211;49.980;19.776;2022-09-27T02:42:10;97982.88;;;8.74;100.00
38939;BME280;24211;49.980;19.776;2022-09-27T02:44:49;97975.16;;;8.72;100.00
38939;BME280;24211;49.980;19.776;2022-09-27T02:48:24;97958.84;;;8.69;100.00
38939;BME280;24211;49.980;19.776;2022-09-27T03:00:13;97969.53;;;8.52;100.00
38939;BME280;24211;49.980;19.776;2022-09-27T03:03:12;97985.50;;;8.52;100.00
38939;BME280;24211;49.980;19.776;2022-09-27T03:06:04;97960.97;;;8.50;100.00
38939;BME280;24211;49.980;19.776;2022-09-27T03:08:37;97959.59;;;8.47;100.00
38939;BME280;24211;49.980;19.776;2022-09-27T03:11:09;97972.59;;;8.44;100.00
38939;BME280;24211;49.980;19.776;2022-09-27T03:13:39;97974.22;;;8.45;100.00
38939;BME280;24211;49.980;19.776;2022-09-27T03:16:27;97976.78;;;8.40;100.00
38939;BME280;24211;49.980;19.776;2022-09-27T03:19:14;97971.47;;;8.40;100.00
38939;BME280;24211;49.980;19.776;2022-09-27T03:22:17;97961.53;;;8.35;100.00
38939;BME280;24211;49.980;19.776;2022-09-27T03:24:46;97957.81;;;8.36;100.00
38939;BME280;24211;49.980;19.776;2022-09-27T03:27:14;97954.59;;;8.34;100.00
38939;BME280;24211;49.980;19.776;2022-09-27T03:29:50;97950.56;;;8.32;100.00
38939;BME280;24211;49.980;19.776;2022-09-27T03:32:17;97952.91;;;8.28;100.00
38939;BME280;24211;49.980;19.776;2022-09-27T03:35:09;97948.84;;;8.26;100.00
38939;BME280;24211;49.980;19.776;2022-09-27T03:37:37;97955.34;;;8.30;100.00
38939;BME280;24211;49.980;19.776;2022-09-27T03:40:06;97948.38;;;8.29;100.00
38939;BME280;24211;49.980;19.776;2022-09-27T03:42:35;97944.34;;;8.26;100.00
38939;BME280;24211;49.980;19.776;2022-09-27T03:45:17;97948.84;;;8.26;100.00
38939;BME280;24211;49.980;19.776;2022-09-27T03:47:48;97949.34;;;8.23;100.00
38939;BME280;24211;49.980;19.776;2022-09-27T03:50:22;97943.22;;;8.22;100.00
38939;BME280;24211;49.980;19.776;2022-09-27T03:52:55;97947.72;;;8.22;100.00
38939;BME280;24211;49.980;19.776;2022-09-27T03:55:33;97950.63;;;8.20;100.00
38939;BME280;24211;49.980;19.776;2022-09-27T03:58:04;97941.28;;;8.18;100.00
38939;BME280;24211;49.980;19.776;2022-09-27T04:00:38;97948.69;;;8.16;100.00
38939;BME280;24211;49.980;19.776;2022-09-27T04:03:08;97939.09;;;8.15;100.00
38939;BME280;24211;49.980;19.776;2022-09-27T04:06:06;97932.06;;;8.09;100.00
38939;BME280;24211;49.980;19.776;2022-09-27T04:08:38;97929.84;;;8.01;100.00
38939;BME280;24211;49.980;19.776;2022-09-27T04:11:08;97919.84;;;7.91;100.00
38939;BME280;24211;49.980;19.776;2022-09-27T04:13:37;97915.63;;;7.78;100.00
38939;BME280;24211;49.980;19.776;2022-09-27T04:16:05;97923.03;;;7.76;100.00
38939;BME280;24211;49.980;19.776;2022-09-27T04:18:55;97918.94;;;7.85;100.00
38939;BME280;24211;49.980;19.776;2022-09-27T04:21:38;97914.19;;;7.87;100.00
38939;BME280;24211;49.980;19.776;2022-09-27T04:24:13;97915.22;;;7.86;100.00
38939;BME280;24211;49.980;19.776;2022-09-27T04:26:54;97915.22;;;7.86;100.00
38939;BME280;24211;49.980;19.776;2022-09-27T04:29:26;97911.78;;;7.86;100.00
38939;BME280;24211;49.980;19.776;2022-09-27T04:32:16;97922.06;;;7.82;100.00
38939;BME280;24211;49.980;19.776;2022-09-27T04:35:11;97926.34;;;7.83;100.00
38939;BME280;24211;49.980;19.776;2022-09-27T04:37:58;97925.28;;;7.84;100.00
38939;BME280;24211;49.980;19.776;2022-09-27T04:40:26;97925.28;;;7.84;100.00
38939;BME280;24211;49.980;19.776;2022-09-27T04:42:54;97931.09;;;7.81;100.00
38939;BME280;24211;49.980;19.776;2022-09-27T04:45:27;97927.88;;;7.79;100.00
38939;BME280;24211;49.980;19.776;2022-09-27T04:47:58;97923.53;;;7.73;100.00
38939;BME280;24211;49.980;19.776;2022-09-27T04:50:31;97920.53;;;7.70;100.00
38939;BME280;24211;49.980;19.776;2022-09-27T04:53:03;97908.50;;;7.67;100.00
38939;BME280;24211;49.980;19.776;2022-09-27T04:55:33;97909.34;;;7.68;100.00
38939;BME280;24211;49.980;19.776;2022-09-27T04:58:03;97919.16;;;7.67;100.00
38939;BME280;24211;49.980;19.776;2022-09-27T05:00:35;97912.56;;;7.70;100.00
38939;BME280;24211;49.980;19.776;2022-09-27T05:03:22;97910.13;;;7.68;100.00
38939;BME280;24211;49.980;19.776;2022-09-27T05:05:58;97909.34;;;7.68;100.00
38939;BME280;24211;49.980;19.776;2022-09-27T05:08:27;97897.88;;;7.67;100.00
38939;BME280;24211;49.980;19.776;2022-09-27T05:11:21;97897.88;;;7.67;100.00
38939;BME280;24211;49.980;19.776;2022-09-27T05:14:19;97897.66;;;7.69;100.00
38939;BME280;24211;49.980;19.776;2022-09-27T05:17:14;97895.78;;;7.69;100.00
38939;BME280;24211;49.980;19.776;2022-09-27T05:20:03;97899.34;;;7.75;100.00
38939;BME280;24211;49.980;19.776;2022-09-27T05:22:39;97899.09;;;7.76;100.00
38939;BME280;24211;49.980;19.776;2022-09-27T05:25:09;97902.91;;;7.80;100.00
38939;BME280;24211;49.980;19.776;2022-09-27T05:28:35;97901.28;;;7.79;100.00
38939;BME280;24211;49.980;19.776;2022-09-27T05:31:02;97889.03;;;7.78;100.00
38939;BME280;24211;49.980;19.776;2022-09-27T05:33:31;97885.31;;;7.79;100.00
38939;BME280;24211;49.980;19.776;2022-09-27T05:36:20;97883.81;;;7.83;100.00
38939;BME280;24211;49.980;19.776;2022-09-27T05:38:47;97887.59;;;7.87;100.00
38939;BME280;24211;49.980;19.776;2022-09-27T05:41:19;97883.38;;;7.91;100.00
38939;BME280;24211;49.980;19.776;2022-09-27T05:43:48;97877.84;;;7.93;100.00
38939;BME280;24211;49.980;19.776;2022-09-27T05:46:16;97876.78;;;7.94;100.00
38939;BME280;24211;49.980;19.776;2022-09-27T05:49:18;97879.28;;;8.01;100.00
38939;BME280;24211;49.980;19.776;2022-09-27T05:52:11;97871.88;;;8.03;100.00
38939;BME280;24211;49.980;19.776;2022-09-27T05:55:01;97873.06;;;8.12;100.00
38939;BME280;24211;49.980;19.776;2022-09-27T05:58:11;97871.59;;;8.21;100.00
38939;BME280;24211;49.980;19.776;2022-09-27T06:01:16;97870.66;;;8.27;100.00
38939;BME280;24211;49.980;19.776;2022-09-27T06:04:06;97862.25;;;8.35;100.00
38939;BME280;24211;49.980;19.776;2022-09-27T06:06:59;97871.41;;;8.44;100.00
38939;BME280;24211;49.980;19.776;2022-09-27T06:09:27;97876.56;;;8.50;100.00
38939;BME280;24211;49.980;19.776;2022-09-27T06:11:56;97885.44;;;8.56;100.00
38939;BME280;24211;49.980;19.776;2022-09-27T06:14:33;97885.50;;;8.61;100.00
38939;BME280;24211;49.980;19.776;2022-09-27T06:17:29;97884.81;;;8.71;100.00
38939;BME280;24211;49.980;19.776;2022-09-27T06:20:27;97881.41;;;8.75;100.00
38939;BME280;24211;49.980;19.776;2022-09-27T06:23:24;97894.03;;;8.85;100.00
38939;BME280;24211;49.980;19.776;2022-09-27T06:26:25;97878.94;;;8.90;100.00
38939;BME280;24211;49.980;19.776;2022-09-27T06:29:26;97891.56;;;9.00;100.00
38939;BME280;24211;49.980;19.776;2022-09-27T06:43:23;97889.34;;;9.40;100.00
38939;BME280;24211;49.980;19.776;2022-09-27T06:46:42;97881.44;;;9.50;100.00
38939;BME280;24211;49.980;19.776;2022-09-27T06:50:21;97874.84;;;9.58;100.00
38939;BME280;24211;49.980;19.776;2022-09-27T06:53:05;97872.78;;;9.65;100.00
38939;BME280;24211;49.980;19.776;2022-09-27T06:56:00;97887.25;;;9.74;100.00
38939;BME280;24211;49.980;19.776;2022-09-27T06:58:42;97885.13;;;9.76;100.00
38939;BME280;24211;49.980;19.776;2022-09-27T07:01:50;97888.44;;;9.88;100.00
38939;BME280;24211;49.980;19.776;2022-09-27T07:04:51;97877.34;;;10.01;100.00
38939;BME280;24211;49.980;19.776;2022-09-27T07:12:22;97877.06;;;10.34;100.00
38939;BME280;24211;49.980;19.776;2022-09-27T07:14:50;97870.72;;;10.45;100.00
38939;BME280;24211;49.980;19.776;2022-09-27T07:17:33;97872.66;;;10.55;100.00
38939;BME280;24211;49.980;19.776;2022-09-27T07:20:05;97878.84;;;10.66;100.00
38939;BME280;24211;49.980;19.776;2022-09-27T07:22:45;97873.56;;;10.76;100.00
38939;BME280;24211;49.980;19.776;2022-09-27T07:26:38;97874.16;;;10.93;100.00
38939;BME280;24211;49.980;19.776;2022-09-27T07:30:55;97869.97;;;11.17;100.00
38939;BME280;24211;49.980;19.776;2022-09-27T07:34:13;97860.38;;;11.41;100.00
38939;BME280;24211;49.980;19.776;2022-09-27T07:50:08;97857.66;;;12.67;100.00
38939;BME280;24211;49.980;19.776;2022-09-27T07:53:04;97848.72;;;12.92;100.00
38939;BME280;24211;49.980;19.776;2022-09-27T07:55:43;97846.19;;;13.21;100.00
38939;BME280;24211;49.980;19.776;2022-09-27T07:58:25;97845.53;;;13.39;100.00
38939;BME280;24211;49.980;19.776;2022-09-27T08:00:59;97837.91;;;13.56;100.00
38939;BME280;24211;49.980;19.776;2022-09-27T08:03:30;97836.16;;;13.75;100.00
38939;BME280;24211;49.980;19.776;2022-09-27T08:06:01;97830.69;;;13.85;100.00
38939;BME280;24211;49.980;19.776;2022-09-27T08:08:36;97819.78;;;14.05;100.00
38939;BME280;24211;49.980;19.776;2022-09-27T08:11:14;97813.72;;;14.18;100.00
38939;BME280;24211;49.980;19.776;2022-09-27T08:13:45;97815.72;;;14.36;100.00
38939;BME280;24211;49.980;19.776;2022-09-27T08:16:13;97812.81;;;14.57;100.00
38939;BME280;24211;49.980;19.776;2022-09-27T08:19:14;97814.91;;;14.83;100.00
38939;BME280;24211;49.980;19.776;2022-09-27T08:21:47;97812.19;;;15.07;100.00
38939;BME280;24211;49.980;19.776;2022-09-27T08:24:21;97807.66;;;15.21;100.00
38939;BME280;24211;49.980;19.776;2022-09-27T08:27:04;97809.06;;;15.37;100.00
38939;BME280;24211;49.980;19.776;2022-09-27T08:29:59;97806.88;;;15.39;100.00
38939;BME280;24211;49.980;19.776;2022-09-27T08:32:32;97800.00;;;15.52;100.00
38939;BME280;24211;49.980;19.776;2022-09-27T08:35:04;97799.28;;;15.79;100.00
38939;BME280;24211;49.980;19.776;2022-09-27T08:37:33;97803.53;;;15.98;100.00
38939;BME280;24211;49.980;19.776;2022-09-27T08:40:02;97798.28;;;16.07;100.00
38939;BME280;24211;49.980;19.776;2022-09-27T08:42:57;97795.09;;;16.32;100.00
38939;BME280;24211;49.980;19.776;2022-09-27T08:46:04;97791.63;;;16.59;100.00
38939;BME280;24211;49.980;19.776;2022-09-27T08:48:37;97791.44;;;16.82;100.00
38939;BME280;24211;49.980;19.776;2022-09-27T08:51:14;97784.78;;;17.16;100.00
38939;BME280;24211;49.980;19.776;2022-09-27T08:53:54;97784.44;;;17.31;100.00
38939;BME280;24211;49.980;19.776;2022-09-27T08:56:23;97772.34;;;17.64;100.00
38939;BME280;24211;49.980;19.776;2022-09-27T08:59:26;97779.56;;;17.77;100.00
38939;BME280;24211;49.980;19.776;2022-09-27T09:03:24;97770.72;;;18.16;100.00
38939;BME280;24211;49.980;19.776;2022-09-27T09:06:38;97762.81;;;18.28;99.33
38939;BME280;24211;49.980;19.776;2022-09-27T09:09:39;97758.88;;;18.25;100.00
38939;BME280;24211;49.980;19.776;2022-09-27T09:12:37;97745.63;;;18.55;98.05
38939;BME280;24211;49.980;19.776;2022-09-27T09:19:02;97743.50;;;19.25;91.03
38939;BME280;24211;49.980;19.776;2022-09-27T09:22:32;97734.78;;;20.09;81.89
38939;BME280;24211;49.980;19.776;2022-09-27T09:31:41;97713.03;;;23.09;57.14
38939;BME280;24211;49.980;19.776;2022-09-27T09:34:48;97709.34;;;22.41;60.55
38939;BME280;24211;49.980;19.776;2022-09-27T09:37:47;97701.72;;;22.70;60.23
38939;BME280;24211;49.980;19.776;2022-09-27T09:40:48;97696.72;;;22.36;62.11
38939;BME280;24211;49.980;19.776;2022-09-27T09:46:25;97686.34;;;20.86;72.37
38939;BME280;24211;49.980;19.776;2022-09-27T09:49:46;97679.16;;;20.91;72.91
38939;BME280;24211;49.980;19.776;2022-09-27T09:52:37;97672.28;;;20.93;72.85
38939;BME280;24211;49.980;19.776;2022-09-27T09:55:23;97664.03;;;21.02;72.54
38939;BME280;24211;49.980;19.776;2022-09-27T10:01:29;97657.44;;;20.91;69.35
38939;BME280;24211;49.980;19.776;2022-09-27T10:04:04;97648.03;;;21.09;69.75
38939;BME280;24211;49.980;19.776;2022-09-27T10:06:47;97646.59;;;21.44;66.61
38939;BME280;24211;49.980;19.776;2022-09-27T10:09:34;97640.00;;;21.45;65.88
38939;BME280;24211;49.980;19.776;2022-09-27T10:12:36;97643.56;;;21.58;64.94
38939;BME280;24211;49.980;19.776;2022-09-27T10:15:05;97637.41;;;21.48;69.82
38939;BME280;24211;49.980;19.776;2022-09-27T10:22:33;97623.59;;;21.86;62.21
38939;BME280;24211;49.980;19.776;2022-09-27T10:26:11;97610.56;;;21.92;65.33
38939;BME280;24211;49.980;19.776;2022-09-27T10:29:33;97615.88;;;21.88;66.93
38939;BME280;24211;49.980;19.776;2022-09-27T10:37:20;97601.63;;;22.16;65.44
38939;BME280;24211;49.980;19.776;2022-09-27T10:54:58;97597.72;;;22.29;63.57
38939;BME280;24211;49.980;19.776;2022-09-27T10:57:39;97591.41;;;22.25;64.94
38939;BME280;24211;49.980;19.776;2022-09-27T11:00:35;97593.22;;;22.33;66.29
38939;BME280;24211;49.980;19.776;2022-09-27T11:03:20;97597.72;;;22.29;66.88
38939;BME280;24211;49.980;19.776;2022-09-27T11:05:49;97584.13;;;22.17;64.97
38939;BME280;24211;49.980;19.776;2022-09-27T11:08:32;97589.78;;;22.24;67.20
38939;BME280;24211;49.980;19.776;2022-09-27T11:11:23;97588.66;;;22.37;67.47
38939;BME280;24211;49.980;19.776;2022-09-27T11:14:21;97585.91;;;22.49;66.77
38939;BME280;24211;49.980;19.776;2022-09-27T11:17:09;97584.31;;;22.60;66.37
38939;BME280;24211;49.980;19.776;2022-09-27T11:20:18;97573.59;;;22.79;67.28
38939;BME280;24211;49.980;19.776;2022-09-27T11:31:46;97565.19;;;22.84;63.24
38939;BME280;24211;49.980;19.776;2022-09-27T11:57:35;97528.53;;;23.09;58.35
38939;BME280;24211;49.980;19.776;2022-09-27T12:14:36;97508.22;;;23.07;52.34
38939;BME280;24211;49.980;19.776;2022-09-27T12:17:15;97509.78;;;23.08;53.45
38939;BME280;24211;49.980;19.776;2022-09-27T12:19:57;97503.34;;;23.00;53.76
38939;BME280;24211;49.980;19.776;2022-09-27T12:27:46;97509.91;;;22.84;53.65
38939;BME280;24211;49.980;19.776;2022-09-27T12:30:37;97501.19;;;22.78;55.84
38939;BME280;24211;49.980;19.776;2022-09-27T12:33:31;97497.16;;;22.72;56.69
38939;BME280;24211;49.980;19.776;2022-09-27T12:36:12;97503.97;;;22.66;57.87
38939;BME280;24211;49.980;19.776;2022-09-27T12:39:10;97489.69;;;22.57;53.50
38939;BME280;24211;49.980;19.776;2022-09-27T12:42:02;97492.22;;;22.50;55.43
38939;BME280;24211;49.980;19.776;2022-09-27T12:44:42;97488.69;;;22.49;53.86
38939;BME280;24211;49.980;19.776;2022-09-27T12:47:53;97492.47;;;22.45;54.72
38939;BME280;24211;49.980;19.776;2022-09-27T12:50:39;97488.59;;;22.46;54.85
38939;BME280;24211;49.980;19.776;2022-09-27T12:53:22;97485.00;;;22.42;53.20
38939;BME280;24211;49.980;19.776;2022-09-27T13:12:28;97470.66;;;22.17;54.46
38939;BME280;24211;49.980;19.776;2022-09-27T13:15:15;97461.94;;;22.11;54.24
38939;BME280;24211;49.980;19.776;2022-09-27T13:17:55;97463.53;;;22.12;54.86
38939;BME280;24211;49.980;19.776;2022-09-27T13:20:45;97468.28;;;22.16;54.45
38939;BME280;24211;49.980;19.776;2022-09-27T13:26:46;97465.34;;;22.21;56.51
38939;BME280;24211;49.980;19.776;2022-09-27T13:29:31;97463.66;;;22.16;56.92
38939;BME280;24211;49.980;19.776;2022-09-27T13:37:36;97467.72;;;22.10;58.16
38939;BME280;24211;49.980;19.776;2022-09-27T13:41:16;97464.00;;;22.02;58.89
38939;BME280;24211;49.980;19.776;2022-09-27T13:47:32;97478.53;;;21.94;59.51
38939;BME280;24211;49.980;19.776;2022-09-27T13:51:19;97474.47;;;21.88;61.43
38939;BME280;24211;49.980;19.776;2022-09-27T13:54:01;97474.66;;;21.83;62.72
38939;BME280;24211;49.980;19.776;2022-09-27T13:59:50;97469.81;;;21.77;63.64
38939;BME280;24211;49.980;19.776;2022-09-27T14:03:12;97464.59;;;21.72;63.60
38939;BME280;24211;49.980;19.776;2022-09-27T14:05:54;97463.69;;;21.68;64.20
38939;BME280;24211;49.980;19.776;2022-09-27T14:08:53;97462.00;;;21.63;65.01
38939;BME280;24211;49.980;19.776;2022-09-27T14:11:41;97458.38;;;21.59;65.52
38939;BME280;24211;49.980;19.776;2022-09-27T14:14:23;97460.19;;;21.55;65.51
38939;BME280;24211;49.980;19.776;2022-09-27T14:17:09;97462.34;;;21.49;65.88
38939;BME280;24211;49.980;19.776;2022-09-27T14:19:43;97454.44;;;21.44;66.64
38939;BME280;24211;49.980;19.776;2022-09-27T14:22:20;97452.72;;;21.40;67.55
38939;BME280;24211;49.980;19.776;2022-09-27T14:24:58;97462.69;;;21.36;68.20
38939;BME280;24211;49.980;19.776;2022-09-27T14:28:30;97458.63;;;21.30;68.68
38939;BME280;24211;49.980;19.776;2022-09-27T14:31:32;97457.69;;;21.26;69.09
38939;BME280;24211;49.980;19.776;2022-09-27T14:34:27;97464.47;;;21.20;69.97
38939;BME280;24211;49.980;19.776;2022-09-27T14:37:32;97458.47;;;21.14;70.50
38939;BME280;24211;49.980;19.776;2022-09-27T14:40:21;97460.28;;;21.10;70.52
38939;BME280;24211;49.980;19.776;2022-09-27T14:42:58;97467.03;;;21.04;71.00
38939;BME280;24211;49.980;19.776;2022-09-27T14:45:36;97473.81;;;20.98;71.89
38939;BME280;24211;49.980;19.776;2022-09-27T14:48:30;97485.88;;;20.88;74.41
38939;BME280;24211;49.980;19.776;2022-09-27T14:56:24;97502.63;;;20.58;73.92
38939;BME280;24211;49.980;19.776;2022-09-27T14:59:34;97515.50;;;20.28;78.99
38939;BME280;24211;49.980;19.776;2022-09-27T15:02:17;97518.69;;;19.72;87.49
38939;BME280;24211;49.980;19.776;2022-09-27T15:05:19;97531.75;;;19.32;95.30
38939;BME280;24211;49.980;19.776;2022-09-27T15:07:48;97531.16;;;19.09;99.56
38939;BME280;24211;49.980;19.776;2022-09-27T15:10:22;97544.59;;;18.88;100.00
38939;BME280;24211;49.980;19.776;2022-09-27T15:13:45;97563.34;;;18.16;100.00
38939;BME280;24211;49.980;19.776;2022-09-27T15:16:39;97569.06;;;17.58;100.00
38939;BME280;24211;49.980;19.776;2022-09-27T15:19:30;97580.22;;;17.13;100.00
38939;BME280;24211;49.980;19.776;2022-09-27T15:22:36;97586.63;;;17.17;100.00
38939;BME280;24211;49.980;19.776;2022-09-27T15:30:41;97601.22;;;16.93;100.00
38939;BME280;24211;49.980;19.776;2022-09-27T15:33:24;97590.50;;;16.58;100.00
38939;BME280;24211;49.980;19.776;2022-09-27T15:35:56;97589.66;;;16.21;100.00
38939;BME280;24211;49.980;19.776;2022-09-27T15:38:34;97587.94;;;16.12;100.00
38939;BME280;24211;49.980;19.776;2022-09-27T15:41:19;97579.66;;;16.22;100.00
38939;BME280;24211;49.980;19.776;2022-09-27T15:43:52;97593.75;;;16.19;100.00
38939;BME280;24211;49.980;19.776;2022-09-27T15:51:39;97605.63;;;16.18;100.00
38939;BME280;24211;49.980;19.776;2022-09-27T15:54:31;97604.44;;;16.24;100.00
38939;BME280;24211;49.980;19.776;2022-09-27T15:57:10;97600.72;;;16.20;100.00
38939;BME280;24211;49.980;19.776;2022-09-27T15:59:46;97599.16;;;16.19;100.00
38939;BME280;24211;49.980;19.776;2022-09-27T16:02:47;97600.44;;;16.21;100.00
38939;BME280;24211;49.980;19.776;2022-09-27T16:10:47;97590.16;;;16.10;100.00
38939;BME280;24211;49.980;19.776;2022-09-27T16:13:16;97598.34;;;16.05;100.00
38939;BME280;24211;49.980;19.776;2022-09-27T16:15:58;97594.56;;;16.06;100.00
38939;BME280;24211;49.980;19.776;2022-09-27T16:18:38;97600.56;;;16.03;100.00
38939;BME280;24211;49.980;19.776;2022-09-27T16:21:44;97602.25;;;15.99;100.00
38939;BME280;24211;49.980;19.776;2022-09-27T16:24:28;97607.16;;;15.97;100.00
38939;BME280;24211;49.980;19.776;2022-09-27T16:31:52;97617.50;;;15.90;100.00
38939;BME280;24211;49.980;19.776;2022-09-27T16:34:20;97619.72;;;15.88;100.00
38939;BME280;24211;49.980;19.776;2022-09-27T16:38:03;97617.75;;;15.80;100.00
38939;BME280;24211;49.980;19.776;2022-09-27T16:40:32;97624.31;;;15.74;100.00
38939;BME280;24211;49.980;19.776;2022-09-27T16:43:38;97631.97;;;15.66;100.00
38939;BME280;24211;49.980;19.776;2022-09-27T16:46:20;97633.06;;;15.65;100.00
38939;BME280;24211;49.980;19.776;2022-09-27T16:48:51;97637.47;;;15.61;100.00
38939;BME280;24211;49.980;19.776;2022-09-27T16:51:56;97653.13;;;15.59;100.00
38939;BME280;24211;49.980;19.776;2022-09-27T16:54:29;97653.72;;;15.56;100.00
38939;BME280;24211;49.980;19.776;2022-09-27T16:56:58;97660.97;;;15.56;100.00
38939;BME280;24211;49.980;19.776;2022-09-27T16:59:40;97652.72;;;15.52;100.00
38939;BME280;24211;49.980;19.776;2022-09-27T17:02:34;97652.81;;;15.47;100.00
38939;BME280;24211;49.980;19.776;2022-09-27T17:05:35;97648.81;;;15.45;100.00
38939;BME280;24211;49.980;19.776;2022-09-27T17:08:03;97652.34;;;15.40;100.00
38939;BME280;24211;49.980;19.776;2022-09-27T17:10:45;97641.69;;;15.35;100.00
38939;BME280;24211;49.980;19.776;2022-09-27T17:13:13;97638.53;;;15.28;100.00
38939;BME280;24211;49.980;19.776;2022-09-27T17:15:56;97643.50;;;15.21;100.00
38939;BME280;24211;49.980;19.776;2022-09-27T17:18:24;97642.75;;;15.21;100.00
38939;BME280;24211;49.980;19.776;2022-09-27T17:21:01;97641.94;;;15.20;100.00
38939;BME280;24211;49.980;19.776;2022-09-27T17:23:46;97646.28;;;15.16;100.00
38939;BME280;24211;49.980;19.776;2022-09-27T17:26:45;97646.91;;;15.13;100.00
38939;BME280;24211;49.980;19.776;2022-09-27T17:29:17;97641.00;;;15.11;100.00
38939;BME280;24211;49.980;19.776;2022-09-27T17:32:02;97657.94;;;15.12;100.00
38939;BME280;24211;49.980;19.776;2022-09-27T17:39:15;97646.03;;;14.99;100.00
38939;BME280;24211;49.980;19.776;2022-09-27T17:41:59;97658.97;;;14.97;100.00
38939;BME280;24211;49.980;19.776;2022-09-27T17:45:00;97649.91;;;14.93;100.00
38939;BME280;24211;49.980;19.776;2022-09-27T17:47:56;97645.09;;;14.90;100.00
38939;BME280;24211;49.980;19.776;2022-09-27T17:50:45;97658.06;;;14.88;100.00
38939;BME280;24211;49.980;19.776;2022-09-27T17:53:31;97655.94;;;14.85;100.00
38939;BME280;24211;49.980;19.776;2022-09-27T18:00:51;97667.34;;;14.77;100.00
38939;BME280;24211;49.980;19.776;2022-09-27T18:05:30;97675.22;;;14.73;100.00
38939;BME280;24211;49.980;19.776;2022-09-27T18:07:58;97680.34;;;14.70;100.00
38939;BME280;24211;49.980;19.776;2022-09-27T18:12:35;97693.88;;;14.65;100.00
38939;BME280;24211;49.980;19.776;2022-09-27T18:15:12;97692.88;;;14.61;100.00
38939;BME280;24211;49.980;19.776;2022-09-27T18:18:18;97690.47;;;14.59;100.00
38939;BME280;24211;49.980;19.776;2022-09-27T18:21:18;97695.63;;;14.56;100.00
38939;BME280;24211;49.980;19.776;2022-09-27T18:24:30;97697.81;;;14.54;100.00
38939;BME280;24211;49.980;19.776;2022-09-27T18:27:28;97691.38;;;14.50;100.00
38939;BME280;24211;49.980;19.776;2022-09-27T18:30:18;97701.63;;;14.48;100.00
38939;BME280;24211;49.980;19.776;2022-09-27T18:32:46;97703.31;;;14.44;100.00
38939;BME280;24211;49.980;19.776;2022-09-27T18:35:22;97700.91;;;14.42;100.00